Time;durP1;ratioP1;P1;durP2;ratioP2;P2;SDS_P1;SDS_P2;PMS_P1;PMS_P2;Temp;Humidity;BMP_temperature;BMP_pressure;BME280_temperature;BME280_humidity;BME280_pressure;Samples;Min_cycle;Max_cycle;Signal;HPM_P1;HPM_P2
2021/11/20 00:02:51;;;;;;;18.25;12.90;;;;;;;10.58;100.00;102828.81;10587263;28;20062;-60
2021/11/20 00:07:54;;;;;;;16.95;11.85;;;;;;;10.50;100.00;102828.13;10587089;28;20044;-60
2021/11/20 00:12:57;;;;;;;16.85;11.93;;;;;;;10.46;100.00;102825.66;10586801;28;20047;-60
2021/11/20 00:17:59;;;;;;;16.85;12.40;;;;;;;10.49;100.00;102812.44;10587337;28;20050;-60
2021/11/20 00:23:02;;;;;;;15.93;12.60;;;;;;;10.58;100.00;102828.81;10551982;28;20053;-61
2021/11/20 00:28:05;;;;;;;15.13;11.18;;;;;;;10.50;100.00;102819.41;10568034;28;20134;-60
2021/11/20 00:33:09;;;;;;;12.63;10.82;;;;;;;10.58;100.00;102820.09;10586162;28;20043;-60
2021/11/20 00:38:13;;;;;;;21.85;14.18;;;;;;;10.60;100.00;102808.66;10586931;28;20043;-60
2021/11/20 00:43:17;;;;;;;16.42;13.05;;;;;;;10.48;100.00;102806.34;10586168;28;20063;-60
2021/11/20 00:48:21;;;;;;;16.00;13.10;;;;;;;10.44;100.00;102802.13;10585665;28;20052;-60
2021/11/20 00:53:24;;;;;;;16.73;12.75;;;;;;;10.39;100.00;102803.97;10585232;28;20101;-60
2021/11/20 00:58:27;;;;;;;16.92;14.25;;;;;;;10.38;100.00;102797.88;10585364;28;20129;-60
2021/11/20 01:03:29;;;;;;;19.48;14.48;;;;;;;10.44;100.00;102802.13;10566771;28;20055;-60
2021/11/20 01:08:35;;;;;;;21.83;15.60;;;;;;;10.35;100.00;102786.59;10585135;28;20044;-60
2021/11/20 01:13:37;;;;;;;19.83;13.98;;;;;;;10.33;100.00;102796.28;10567088;28;20051;-61
2021/11/20 01:18:40;;;;;;;18.98;14.25;;;;;;;10.40;100.00;102782.97;10584715;28;20119;-60
2021/11/20 01:23:44;;;;;;;19.98;13.95;;;;;;;10.36;100.00;102777.88;10583449;28;20052;-60
2021/11/20 01:28:51;;;;;;;16.80;13.35;;;;;;;10.22;100.00;102771.19;10584458;28;20047;-60
2021/11/20 01:33:54;;;;;;;16.70;12.98;;;;;;;10.46;100.00;102778.50;10584132;28;20054;-60
2021/11/20 01:38:58;;;;;;;15.75;13.82;;;;;;;10.34;100.00;102769.16;10583779;28;20054;-60
2021/11/20 01:44:10;;;;;;;22.90;16.58;;;;;;;10.39;100.00;102764.72;10583113;28;20058;-60
2021/11/20 01:49:17;;;;;;;15.13;12.38;;;;;;;10.37;100.00;102759.50;10566075;28;20102;-60
2021/11/20 01:54:31;;;;;;;15.43;12.82;;;;;;;10.31;100.00;102762.22;10583161;28;20054;-61
2021/11/20 01:59:43;;;;;;;16.08;13.65;;;;;;;10.36;100.00;102749.06;10583688;28;20062;-60
2021/11/20 02:05:03;;;;;;;17.42;15.25;;;;;;;10.36;100.00;102754.31;10582882;28;20048;-60
2021/11/20 02:10:28;;;;;;;19.95;15.52;;;;;;;10.40;100.00;102755.94;10564423;28;20040;-60
2021/11/20 02:15:48;;;;;;;23.33;16.50;;;;;;;10.27;100.00;102751.88;10564242;28;20051;-61
2021/11/20 02:20:55;;;;;;;19.13;16.10;;;;;;;10.30;100.00;102749.19;10582596;28;20044;-60
2021/11/20 02:25:58;;;;;;;21.02;17.08;;;;;;;10.17;100.00;102739.03;10564368;28;20130;-60
2021/11/20 02:31:01;;;;;;;21.17;15.95;;;;;;;10.48;100.00;102730.41;10582306;28;20061;-60
2021/11/20 02:36:07;;;;;;;19.90;17.10;;;;;;;10.32;100.00;102723.84;10582002;28;20047;-60
2021/11/20 02:41:13;;;;;;;20.00;15.68;;;;;;;10.27;100.00;102736.16;10581786;28;20059;-61
2021/11/20 02:46:22;;;;;;;21.58;16.48;;;;;;;10.34;100.00;102730.78;10581927;28;20047;-61
2021/11/20 02:51:31;;;;;;;24.15;19.17;;;;;;;10.12;100.00;102722.56;10581420;28;20062;-61
2021/11/20 02:56:38;;;;;;;18.05;15.30;;;;;;;10.17;100.00;102709.34;10581413;28;20055;-60
2021/11/20 03:01:41;;;;;;;26.15;19.08;;;;;;;10.10;100.00;102718.25;10581330;28;20047;-60
2021/11/20 03:06:44;;;;;;;23.65;19.80;;;;;;;10.19;100.00;102708.44;10563927;28;20062;-61
2021/11/20 03:11:47;;;;;;;24.65;19.13;;;;;;;10.31;100.00;102702.03;10581032;28;20051;-60
2021/11/20 03:16:53;;;;;;;26.90;20.33;;;;;;;10.06;100.00;102701.78;10581392;28;20046;-60
2021/11/20 03:21:59;;;;;;;21.50;18.15;;;;;;;10.50;100.00;102691.94;10580645;28;20044;-60
2021/11/20 03:27:03;;;;;;;27.63;20.30;;;;;;;10.29;100.00;102685.50;10581771;28;20051;-61
2021/11/20 03:32:07;;;;;;;23.58;17.65;;;;;;;10.43;100.00;102693.00;10580956;28;20043;-60
2021/11/20 03:37:10;;;;;;;33.85;22.33;;;;;;;10.17;100.00;102691.91;10580736;28;20070;-60
2021/11/20 03:42:13;;;;;;;31.58;19.48;;;;;;;10.26;100.00;102690.81;10580942;28;20052;-60
2021/11/20 03:47:15;;;;;;;26.65;19.98;;;;;;;10.29;100.00;102689.84;10588104;28;20052;-60
2021/11/20 03:52:18;;;;;;;26.42;20.83;;;;;;;10.22;100.00;102679.56;10587957;28;20044;-60
2021/11/20 03:57:22;;;;;;;25.02;20.02;;;;;;;10.22;100.00;102681.28;10587771;28;20055;-60
2021/11/20 04:02:25;;;;;;;28.00;22.08;;;;;;;10.08;100.00;102679.03;10570268;28;20086;-60
2021/11/20 04:07:27;;;;;;;34.22;25.60;;;;;;;10.05;100.00;102681.72;10587512;28;20055;-61
2021/11/20 04:12:29;;;;;;;35.88;24.10;;;;;;;10.28;100.00;102682.91;10586767;28;20040;-60
2021/11/20 04:17:32;;;;;;;34.88;24.38;;;;;;;10.23;100.00;102678.63;10587227;28;20047;-60
2021/11/20 04:22:34;;;;;;;35.85;25.00;;;;;;;10.08;100.00;102673.81;10586811;28;20051;-60
2021/11/20 04:27:37;;;;;;;39.50;27.75;;;;;;;10.04;100.00;102662.56;10587126;28;20052;-61
2021/11/20 04:32:40;;;;;;;36.25;26.73;;;;;;;9.99;100.00;102672.28;10586640;28;20066;-60
2021/11/20 04:37:43;;;;;;;40.70;27.88;;;;;;;10.21;100.00;102667.34;10585974;28;20188;-60
2021/11/20 04:42:45;;;;;;;38.72;26.92;;;;;;;10.20;100.00;102664.78;10568142;28;20526;-60
2021/11/20 04:47:48;;;;;;;46.40;29.15;;;;;;;10.09;100.00;102659.84;10585849;28;20051;-60
2021/11/20 04:52:51;;;;;;;44.67;29.17;;;;;;;10.24;100.00;102658.56;10585491;28;20043;-60
2021/11/20 04:57:54;;;;;;;46.45;31.45;;;;;;;10.01;100.00;102653.94;10585461;28;20051;-60
2021/11/20 05:02:56;;;;;;;49.53;29.25;;;;;;;10.13;100.00;102655.38;10585147;28;20130;-61
2021/11/20 05:07:59;;;;;;;41.10;25.02;;;;;;;10.16;100.00;102658.75;10584976;28;20043;-60
2021/11/20 05:13:02;;;;;;;45.75;28.25;;;;;;;10.09;100.00;102669.44;10584636;28;20512;-60
2021/11/20 05:18:06;;;;;;;46.30;30.60;;;;;;;10.15;100.00;102648.34;10585102;28;20046;-60
2021/11/20 05:23:09;;;;;;;39.33;24.05;;;;;;;10.13;100.00;102640.53;10584330;28;20054;-60
2021/11/20 05:28:11;;;;;;;55.97;31.83;;;;;;;9.95;100.00;102641.88;10584067;28;20044;-60
2021/11/20 05:33:21;;;;;;;46.65;29.40;;;;;;;9.86;100.00;102636.84;10565810;28;20050;-60
2021/11/20 05:38:24;;;;;;;49.22;29.38;;;;;;;10.01;100.00;102628.59;10583844;28;20156;-60
2021/11/20 05:43:26;;;;;;;48.35;29.73;;;;;;;9.89;100.00;102636.78;10583382;28;20067;-60
2021/11/20 05:48:29;;;;;;;46.28;28.10;;;;;;;9.99;100.00;102617.34;10583162;28;20047;-61
2021/11/20 05:53:31;;;;;;;52.53;29.27;;;;;;;10.12;100.00;102617.00;10583088;28;20048;-60
2021/11/20 05:58:34;;;;;;;46.45;27.90;;;;;;;10.15;100.00;102607.31;10565144;28;20051;-60
2021/11/20 06:03:37;;;;;;;53.08;30.65;;;;;;;10.00;100.00;102610.34;10565081;28;20048;-60
2021/11/20 06:08:39;;;;;;;48.33;28.10;;;;;;;9.93;100.00;102595.69;10582473;28;20048;-60
2021/11/20 06:13:41;;;;;;;51.05;31.92;;;;;;;9.97;98.82;102598.19;10582980;28;20047;-60
2021/11/20 06:18:44;;;;;;;51.03;30.27;;;;;;;10.12;99.23;102593.44;10582491;28;20123;-60
2021/11/20 06:23:46;;;;;;;53.22;31.67;;;;;;;9.95;100.00;102599.13;10582128;28;20048;-61
2021/11/20 06:28:48;;;;;;;55.72;31.73;;;;;;;9.85;98.13;102601.13;10582204;28;20047;-60
2021/11/20 06:33:52;;;;;;;64.13;34.83;;;;;;;9.86;100.00;102595.00;10581767;28;20047;-60
2021/11/20 06:38:54;;;;;;;50.70;29.33;;;;;;;9.89;100.00;102584.47;10581719;28;20050;-60
2021/11/20 06:43:56;;;;;;;62.65;33.60;;;;;;;9.94;100.00;102577.34;10582304;28;20080;-61
2021/11/20 06:48:59;;;;;;;66.32;36.20;;;;;;;10.00;100.00;102582.44;10582611;28;20058;-60
2021/11/20 06:54:01;;;;;;;67.15;37.33;;;;;;;9.92;100.00;102584.38;10581521;28;20051;-60
2021/11/20 07:04:42;;;;;;;56.00;32.20;;;;;;;9.99;100.00;102588.53;10543886;28;20048;-60
2021/11/20 07:09:45;;;;;;;63.38;36.03;;;;;;;9.95;100.00;102583.44;10563083;28;20043;-60
2021/11/20 07:14:48;;;;;;;74.97;40.88;;;;;;;9.81;100.00;102592.50;10581187;28;20170;-61
2021/11/20 07:19:50;;;;;;;64.72;37.72;;;;;;;9.92;100.00;102593.97;10585079;28;20475;-60
2021/11/20 07:24:52;;;;;;;66.85;38.08;;;;;;;9.88;100.00;102581.88;10589030;28;20491;-60
2021/11/20 07:29:55;;;;;;;62.33;40.15;;;;;;;9.68;100.00;102585.84;10570852;28;20411;-61
2021/11/20 07:34:57;;;;;;;58.30;34.85;;;;;;;9.60;100.00;102591.28;10588783;28;20051;-60
2021/11/20 07:40:00;;;;;;;59.63;35.78;;;;;;;9.92;100.00;102576.53;10588507;28;20044;-60
2021/11/20 07:45:04;;;;;;;67.25;40.33;;;;;;;9.83;99.43;102574.13;10586453;28;20059;-60
2021/11/20 07:50:07;;;;;;;68.78;39.90;;;;;;;10.01;100.00;102570.19;10585958;28;20083;-60
2021/11/20 07:55:11;;;;;;;71.72;43.15;;;;;;;9.83;100.00;102564.56;10585396;28;20164;-60
2021/11/20 08:00:17;;;;;;;70.43;41.42;;;;;;;9.84;99.95;102554.94;10567122;28;20479;-60
2021/11/20 08:05:20;;;;;;;75.43;43.35;;;;;;;9.83;100.00;102547.97;10567255;28;20096;-61
2021/11/20 08:10:25;;;;;;;78.57;44.97;;;;;;;9.80;100.00;102548.94;10585623;28;20043;-60
2021/11/20 08:15:28;;;;;;;75.00;42.28;;;;;;;9.89;99.04;102542.59;10584692;28;20483;-61
2021/11/20 08:20:34;;;;;;;76.78;45.75;;;;;;;9.89;99.82;102534.75;10566553;28;20051;-60
2021/11/20 08:25:39;;;;;;;69.18;41.20;;;;;;;10.13;99.54;102530.59;10584343;28;20093;-60
2021/11/20 08:30:42;;;;;;;79.30;45.30;;;;;;;9.92;98.78;102534.66;10583803;28;20070;-60
2021/11/20 08:35:44;;;;;;;84.18;48.25;;;;;;;9.88;100.00;102526.94;10584148;28;20051;-60
2021/11/20 08:40:48;;;;;;;71.88;41.13;;;;;;;10.09;99.97;102523.75;10545168;28;1101584;-61
2021/11/20 08:45:52;;;;;;;69.40;41.85;;;;;;;10.13;97.81;102521.88;10585788;28;20483;-60
2021/11/20 08:51:01;;;;;;;61.97;39.10;;;;;;;10.06;98.99;102526.44;10585822;28;20050;-60
2021/11/20 08:56:04;;;;;;;64.53;39.33;;;;;;;9.80;99.19;102517.53;10585802;28;20047;-60
2021/11/20 09:01:10;;;;;;;59.92;36.03;;;;;;;9.91;100.00;102511.16;10585133;28;20046;-60
2021/11/20 09:06:36;;;;;;;58.40;39.15;;;;;;;9.91;98.73;102500.69;10585199;28;20124;-60
2021/11/20 09:11:58;;;;;;;56.25;35.42;;;;;;;9.99;97.79;102498.72;10584670;28;20052;-60
2021/11/20 09:17:03;;;;;;;51.13;32.55;;;;;;;10.28;97.33;102500.50;10584774;28;20077;-60
2021/11/20 09:22:05;;;;;;;52.20;32.92;;;;;;;10.28;98.46;102486.56;10566536;28;20050;-61
2021/11/20 09:27:09;;;;;;;60.08;37.28;;;;;;;10.17;97.26;102495.59;10584301;28;20048;-60
2021/11/20 09:32:13;;;;;;;55.17;35.08;;;;;;;10.07;97.53;102498.50;10584087;28;20040;-60
2021/11/20 09:37:16;;;;;;;51.95;33.40;;;;;;;10.42;97.95;102487.03;10565963;28;20479;-60
2021/11/20 09:42:39;;;;;;;50.08;32.17;;;;;;;10.47;97.20;102484.28;10583340;28;20070;-60
2021/11/20 09:47:49;;;;;;;52.53;32.20;;;;;;;10.41;98.76;102477.47;10583473;28;20051;-60
2021/11/20 09:52:52;;;;;;;48.25;31.38;;;;;;;10.22;96.96;102490.19;10565765;28;20051;-60
2021/11/20 09:58:05;;;;;;;52.45;33.78;;;;;;;10.38;96.95;102475.81;10583768;28;20044;-60
2021/11/20 10:03:11;;;;;;;54.15;32.70;;;;;;;10.31;96.76;102476.00;10565303;28;20040;-61
2021/11/20 10:08:34;;;;;;;55.35;34.28;;;;;;;10.26;98.24;102476.13;10582796;28;20056;-60
2021/11/20 10:13:58;;;;;;;49.78;32.67;;;;;;;10.35;98.18;102470.66;10583118;28;20048;-60
2021/11/20 10:19:11;;;;;;;48.33;30.75;;;;;;;10.25;98.98;102463.94;10564534;28;20109;-60
2021/11/20 10:24:19;;;;;;;51.15;34.20;;;;;;;10.29;98.25;102449.00;10564601;28;20051;-60
2021/11/20 10:29:32;;;;;;;57.60;35.28;;;;;;;10.23;99.79;102443.03;10582063;28;20505;-60
2021/11/20 10:34:42;;;;;;;51.47;32.65;;;;;;;10.28;100.00;102444.69;10581948;28;20055;-60
2021/11/20 10:39:52;;;;;;;48.13;29.90;;;;;;;10.31;99.62;102445.44;10581780;28;20047;-60
2021/11/20 10:45:20;;;;;;;45.88;30.13;;;;;;;10.13;100.00;102443.38;10563541;28;20062;-60
2021/11/20 10:50:29;;;;;;;47.38;30.67;;;;;;;10.46;100.00;102430.22;10581707;28;20044;-60
2021/11/20 10:55:34;;;;;;;46.65;31.23;;;;;;;10.06;100.00;102424.38;10588934;28;20055;-60
2021/11/20 11:01:01;;;;;;;45.25;29.15;;;;;;;10.16;100.00;102417.13;10590264;28;20088;-60
2021/11/20 11:06:30;;;;;;;45.08;30.10;;;;;;;9.99;100.00;102402.75;10590080;28;20453;-60
2021/11/20 11:11:39;;;;;;;43.55;29.92;;;;;;;10.14;100.00;102388.38;10551289;28;20052;-60
2021/11/20 11:16:49;;;;;;;39.28;26.70;;;;;;;10.07;100.00;102385.97;10589484;28;20483;-61
2021/11/20 11:22:19;;;;;;;39.88;27.13;;;;;;;10.15;100.00;102378.75;10589044;28;20048;-60
2021/11/20 11:27:44;;;;;;;46.83;28.52;;;;;;;10.22;99.63;102372.41;10528299;28;20051;-60
2021/11/20 11:32:47;;;;;;;43.60;27.67;;;;;;;10.33;100.00;102354.66;10588916;28;20051;-60
2021/11/20 11:38:11;;;;;;;43.70;27.88;;;;;;;10.26;100.00;102345.25;10588929;28;20052;-60
2021/11/20 11:43:42;;;;;;;37.65;27.08;;;;;;;10.13;100.00;102336.06;10588298;28;20047;-60
2021/11/20 11:49:00;;;;;;;42.60;27.27;;;;;;;10.28;100.00;102339.97;10570346;28;20047;-60
2021/11/20 11:54:20;;;;;;;39.42;26.40;;;;;;;10.30;100.00;102330.31;10588380;28;20075;-60
2021/11/20 11:59:36;;;;;;;47.42;28.73;;;;;;;10.23;100.00;102313.94;10587680;28;20483;-60
2021/11/20 12:04:42;;;;;;;40.00;27.42;;;;;;;10.16;100.00;102308.03;10586777;28;20073;-60
2021/11/20 12:09:48;;;;;;;38.58;26.00;;;;;;;10.34;100.00;102296.16;10587471;28;20044;-60
2021/11/20 12:14:50;;;;;;;36.50;25.98;;;;;;;10.30;100.00;102286.66;10569316;28;20120;-60
2021/11/20 12:20:18;;;;;;;37.70;24.90;;;;;;;10.24;100.00;102260.69;10587018;28;20039;-60
2021/11/20 12:25:26;;;;;;;35.60;23.25;;;;;;;10.27;100.00;102255.34;10568787;28;20054;-61
2021/11/20 12:30:54;;;;;;;40.13;23.60;;;;;;;10.17;100.00;102249.56;10586609;28;20044;-60
2021/11/20 12:36:23;;;;;;;36.72;22.83;;;;;;;10.17;100.00;102235.59;10586497;28;20054;-60
2021/11/20 12:41:44;;;;;;;32.40;22.02;;;;;;;10.15;100.00;102225.19;10586233;28;20509;-60
2021/11/20 12:46:53;;;;;;;30.42;21.38;;;;;;;10.27;100.00;102218.72;10585993;28;20056;-61
2021/11/20 12:52:17;;;;;;;32.95;22.58;;;;;;;10.23;100.00;102223.16;10567507;28;20487;-59
2021/11/20 12:57:40;;;;;;;30.92;21.73;;;;;;;10.28;100.00;102212.56;10585722;28;20058;-60
2021/11/20 13:03:10;;;;;;;33.00;20.98;;;;;;;10.17;100.00;102196.34;10585166;28;20384;-60
2021/11/20 13:08:34;;;;;;;33.00;22.52;;;;;;;10.09;100.00;102187.91;10585877;28;20138;-60
2021/11/20 13:13:47;;;;;;;30.42;22.65;;;;;;;10.27;100.00;102178.56;10584831;28;20051;-61
2021/11/20 13:19:12;;;;;;;34.67;24.65;;;;;;;10.26;100.00;102172.50;10564788;28;20051;-60
2021/11/20 13:24:18;;;;;;;33.47;23.90;;;;;;;10.26;100.00;102166.41;10565899;28;20044;-60
2021/11/20 13:29:20;;;;;;;33.83;22.77;;;;;;;10.54;100.00;102159.31;10584113;28;20494;-60
2021/11/20 13:34:23;;;;;;;41.42;27.95;;;;;;;10.32;100.00;102154.00;10565955;28;20048;-60
2021/11/20 13:39:25;;;;;;;40.45;27.17;;;;;;;10.29;100.00;102143.59;10583874;28;20051;-60
2021/11/20 13:44:28;;;;;;;39.55;27.60;;;;;;;10.18;100.00;102143.09;10583896;28;20047;-60
2021/11/20 13:49:32;;;;;;;40.90;27.70;;;;;;;10.29;100.00;102121.78;10565449;28;20051;-60
2021/11/20 13:54:36;;;;;;;40.20;26.70;;;;;;;10.12;100.00;102109.28;10583308;28;20130;-60
2021/11/20 13:59:38;;;;;;;41.65;27.95;;;;;;;10.30;100.00;102102.56;10583215;28;20051;-60
2021/11/20 14:04:42;;;;;;;40.92;26.55;;;;;;;10.53;100.00;102089.53;10583005;28;20048;-60
2021/11/20 14:09:50;;;;;;;40.35;27.77;;;;;;;10.17;100.00;102086.41;10583074;28;20044;-60
2021/11/20 14:15:07;;;;;;;33.72;25.85;;;;;;;10.10;100.00;102075.31;10582599;28;20047;-61
2021/11/20 14:20:12;;;;;;;37.70;24.63;;;;;;;10.18;100.00;102082.91;10582418;28;20047;-60
2021/11/20 14:25:23;;;;;;;39.42;26.02;;;;;;;10.26;100.00;102069.56;10582583;28;20058;-61
2021/11/20 14:30:26;;;;;;;41.92;28.60;;;;;;;10.15;100.00;102051.59;10581757;28;20050;-61
2021/11/20 14:35:28;;;;;;;32.17;23.35;;;;;;;10.29;100.00;102043.25;10582093;28;20048;-60
2021/11/20 14:40:30;;;;;;;32.60;24.17;;;;;;;9.94;100.00;102030.53;10582120;28;20062;-61
2021/11/20 14:45:33;;;;;;;32.55;23.80;;;;;;;9.92;100.00;102026.25;10581895;28;20059;-60
2021/11/20 14:50:38;;;;;;;33.85;24.10;;;;;;;10.02;100.00;102027.66;10581491;28;20044;-60
2021/11/20 14:55:49;;;;;;;30.75;22.70;;;;;;;10.08;100.00;102010.88;10581576;28;20399;-61
2021/11/20 15:01:00;;;;;;;36.55;23.40;;;;;;;10.14;100.00;102005.41;10582218;28;20047;-61
2021/11/20 15:06:06;;;;;;;30.50;22.25;;;;;;;9.93;100.00;102005.25;10563810;28;20152;-60
2021/11/20 15:11:08;;;;;;;39.78;26.63;;;;;;;9.91;100.00;101998.38;10582128;28;20062;-60
2021/11/20 15:16:10;;;;;;;46.65;28.98;;;;;;;9.83;100.00;101989.06;10581125;28;20376;-60
2021/11/20 15:21:13;;;;;;;52.25;30.65;;;;;;;9.74;100.00;101984.13;10581111;28;20043;-60
2021/11/20 15:26:17;;;;;;;52.40;31.60;;;;;;;9.86;100.00;101967.16;10581354;28;20048;-60
2021/11/20 15:31:19;;;;;;;50.47;31.75;;;;;;;9.82;100.00;101968.19;10580830;28;20079;-60
2021/11/20 15:36:22;;;;;;;58.38;33.28;;;;;;;9.65;100.00;101963.56;10563108;28;20040;-60
2021/11/20 15:41:24;;;;;;;57.33;36.38;;;;;;;9.67;100.00;101954.72;10585350;28;20059;-60
2021/11/20 15:46:26;;;;;;;53.38;33.78;;;;;;;9.74;100.00;101949.28;10588956;28;20051;-60
2021/11/20 15:51:29;;;;;;;58.30;31.73;;;;;;;9.67;100.00;101932.97;10588292;28;20050;-61
2021/11/20 15:56:31;;;;;;;49.47;31.88;;;;;;;9.60;100.00;101934.94;10587943;28;20047;-60
2021/11/20 16:01:34;;;;;;;43.13;28.33;;;;;;;9.55;100.00;101929.03;10588257;28;20062;-60
2021/11/20 16:06:37;;;;;;;38.92;25.85;;;;;;;9.42;100.00;101949.50;10587868;28;20051;-60
2021/11/20 16:11:39;;;;;;;42.22;29.42;;;;;;;9.47;100.00;101951.97;10587318;28;20051;-60
2021/11/20 16:16:41;;;;;;;38.72;27.50;;;;;;;9.34;100.00;101951.50;10587392;28;20043;-60
2021/11/20 16:21:44;;;;;;;49.25;31.20;;;;;;;9.45;100.00;101945.94;10569069;28;20039;-60
2021/11/20 16:26:46;;;;;;;37.10;25.65;;;;;;;9.34;100.00;101930.59;10587110;28;20051;-60
2021/11/20 16:31:49;;;;;;;37.25;25.55;;;;;;;9.13;100.00;101920.88;10586606;28;20126;-60
2021/11/20 16:36:51;;;;;;;39.63;27.05;;;;;;;9.21;100.00;101911.00;10586916;28;20054;-60
2021/11/20 16:41:53;;;;;;;43.35;28.58;;;;;;;9.03;100.00;101908.13;10586129;28;20456;-60
2021/11/20 16:46:56;;;;;;;37.15;25.05;;;;;;;9.15;100.00;101903.41;10585786;28;20403;-60
2021/11/20 16:52:09;;;;;;;43.58;28.88;;;;;;;8.97;100.00;101894.41;10585235;28;20519;-60
2021/11/20 16:57:11;;;;;;;39.63;26.80;;;;;;;9.15;100.00;101885.13;10585615;28;20127;-60
2021/11/20 17:02:14;;;;;;;41.92;27.30;;;;;;;8.90;100.00;101875.47;10585491;28;20040;-60
2021/11/20 17:07:17;;;;;;;40.70;27.02;;;;;;;9.19;100.00;101878.88;10585148;28;20055;-60
2021/11/20 17:12:20;;;;;;;42.90;27.15;;;;;;;8.79;100.00;101867.13;10585310;28;20047;-60
2021/11/20 17:17:22;;;;;;;43.42;26.17;;;;;;;8.98;100.00;101867.38;10585006;28;20051;-60
2021/11/20 17:22:27;;;;;;;35.35;25.15;;;;;;;8.80;100.00;101850.56;10550759;28;20058;-60
2021/11/20 17:27:29;;;;;;;38.88;24.85;;;;;;;8.87;100.00;101844.22;10584755;28;20058;-60
2021/11/20 17:32:32;;;;;;;39.65;26.30;;;;;;;8.66;100.00;101833.59;10583962;28;20061;-60
2021/11/20 17:37:35;;;;;;;34.58;22.88;;;;;;;8.68;100.00;101834.41;10583851;28;20044;-60
2021/11/20 17:42:38;;;;;;;37.03;24.85;;;;;;;8.57;100.00;101830.44;10583914;28;20054;-60
2021/11/20 17:47:41;;;;;;;38.58;25.58;;;;;;;8.73;100.00;101824.66;10583296;28;20499;-60
2021/11/20 17:52:43;;;;;;;37.05;24.77;;;;;;;8.74;100.00;101813.31;10583416;28;20091;-61
2021/11/20 17:57:46;;;;;;;33.50;22.00;;;;;;;8.95;100.00;101810.88;10583839;28;20051;-61
2021/11/20 18:02:48;;;;;;;33.35;22.40;;;;;;;8.99;100.00;101803.78;10582559;28;20071;-60
2021/11/20 18:07:51;;;;;;;38.67;25.13;;;;;;;8.82;100.00;101812.19;10582922;28;20052;-60
2021/11/20 18:12:53;;;;;;;36.92;25.67;;;;;;;8.71;100.00;101804.75;10582472;28;20051;-61
2021/11/20 18:17:56;;;;;;;39.90;26.40;;;;;;;8.73;100.00;101809.00;10582236;28;20082;-60
2021/11/20 18:23:15;;;;;;;40.42;27.98;;;;;;;8.84;100.00;101798.19;10552035;28;20051;-60
2021/11/20 18:28:18;;;;;;;40.58;26.67;;;;;;;8.76;100.00;101792.38;10582302;28;20376;-61
2021/11/20 18:33:20;;;;;;;38.60;28.02;;;;;;;8.73;100.00;101789.88;10582005;28;20067;-61
2021/11/20 18:38:25;;;;;;;44.70;29.83;;;;;;;8.76;100.00;101776.72;10582179;28;20061;-60
2021/11/20 18:43:28;;;;;;;43.78;29.10;;;;;;;8.43;100.00;101763.88;10582121;28;20048;-60
2021/11/20 18:48:31;;;;;;;48.13;30.42;;;;;;;8.54;100.00;101755.72;10563696;28;20070;-60
2021/11/20 18:53:33;;;;;;;44.15;27.02;;;;;;;8.74;100.00;101741.94;10581634;28;20039;-60
2021/11/20 18:58:36;;;;;;;51.00;30.65;;;;;;;8.48;100.00;101743.69;10581456;28;20044;-60
2021/11/20 19:03:38;;;;;;;52.33;30.52;;;;;;;8.58;100.00;101732.97;10581466;28;20040;-60
2021/11/20 19:08:41;;;;;;;54.00;32.22;;;;;;;8.65;100.00;101727.47;10582325;28;20055;-60
2021/11/20 19:13:43;;;;;;;56.22;31.88;;;;;;;8.54;100.00;101724.38;10583679;28;20046;-60
2021/11/20 19:18:46;;;;;;;53.13;31.92;;;;;;;8.45;100.00;101716.84;10589601;28;20047;-60
2021/11/20 19:23:49;;;;;;;58.00;32.40;;;;;;;8.57;100.00;101705.13;10589090;28;20392;-60
2021/11/20 19:28:51;;;;;;;60.55;34.83;;;;;;;8.24;100.00;101716.63;10589460;28;20055;-60
2021/11/20 19:33:54;;;;;;;60.92;33.10;;;;;;;8.21;100.00;101719.34;10589338;28;20054;-60
2021/11/20 19:38:57;;;;;;;51.38;30.95;;;;;;;8.45;100.00;101709.03;10570736;28;20403;-60
2021/11/20 19:43:59;;;;;;;57.20;32.47;;;;;;;8.48;100.00;101694.09;10588265;28;20426;-60
2021/11/20 19:49:03;;;;;;;52.58;31.73;;;;;;;8.41;100.00;101687.38;10588773;28;20052;-60
2021/11/20 19:54:05;;;;;;;55.80;30.52;;;;;;;8.06;100.00;101688.53;10588053;28;20403;-60
2021/11/20 19:59:09;;;;;;;50.90;29.48;;;;;;;8.19;100.00;101701.13;10588232;28;20044;-60
2021/11/20 20:04:12;;;;;;;60.58;32.28;;;;;;;8.06;100.00;101681.56;10587821;28;20039;-60
2021/11/20 20:09:14;;;;;;;62.47;32.83;;;;;;;8.06;100.00;101692.00;10587943;28;20051;-60
2021/11/20 20:14:17;;;;;;;60.85;34.65;;;;;;;7.96;100.00;101690.59;10587235;28;20050;-60
2021/11/20 20:19:20;;;;;;;66.72;34.55;;;;;;;8.04;100.00;101675.56;10587480;28;20051;-60
2021/11/20 20:24:22;;;;;;;60.83;33.80;;;;;;;7.88;100.00;101671.72;10586648;28;20055;-60
2021/11/20 20:29:25;;;;;;;60.90;33.63;;;;;;;7.97;100.00;101655.81;10586879;28;20048;-61
2021/11/20 20:34:28;;;;;;;55.80;31.55;;;;;;;8.16;100.00;101651.66;10586708;28;20051;-61
2021/11/20 20:39:30;;;;;;;69.55;37.65;;;;;;;8.27;100.00;101650.44;10586282;28;20055;-62
2021/11/20 20:44:34;;;;;;;64.60;34.17;;;;;;;8.03;100.00;101641.69;10586259;28;20051;-61
2021/11/20 20:49:37;;;;;;;63.72;35.05;;;;;;;7.91;100.00;101635.13;10567942;28;20399;-61
2021/11/20 20:54:39;;;;;;;72.72;35.85;;;;;;;8.10;100.00;101620.59;10585661;28;20044;-60
2021/11/20 20:59:42;;;;;;;54.63;31.30;;;;;;;8.03;100.00;101613.00;10585411;28;20411;-61
2021/11/20 21:04:44;;;;;;;66.63;35.42;;;;;;;8.02;100.00;101606.06;10585278;28;20043;-61
2021/11/20 21:09:47;;;;;;;65.43;34.47;;;;;;;8.03;100.00;101619.06;10585014;28;20407;-60
2021/11/20 21:14:49;;;;;;;52.25;29.65;;;;;;;7.78;100.00;101603.38;10584966;28;20047;-61
2021/11/20 21:25:13;;;;;;;52.50;30.83;;;;;;;8.18;100.00;101587.25;10584594;28;20593;-61
2021/11/20 21:30:15;;;;;;;63.72;34.08;;;;;;;7.74;100.00;101583.53;10584157;28;20051;-61
2021/11/20 21:35:19;;;;;;;59.97;33.97;;;;;;;7.71;100.00;101573.22;10584256;28;20047;-61
2021/11/20 21:40:23;;;;;;;73.90;37.75;;;;;;;7.68;100.00;101568.09;10582953;28;20047;-61
2021/11/20 21:45:26;;;;;;;63.70;34.35;;;;;;;7.85;100.00;101549.28;10584227;28;20067;-61
2021/11/20 21:50:29;;;;;;;66.93;36.42;;;;;;;7.70;100.00;101559.34;10583488;28;20051;-61
2021/11/20 21:55:34;;;;;;;67.53;35.95;;;;;;;7.80;100.00;101552.91;10583201;28;20505;-61
2021/11/20 22:00:36;;;;;;;61.40;34.53;;;;;;;7.76;100.00;101547.84;10583188;28;20048;-61
2021/11/20 22:05:40;;;;;;;68.13;36.22;;;;;;;7.80;100.00;101546.81;10583581;28;20040;-61
2021/11/20 22:10:42;;;;;;;60.17;34.47;;;;;;;7.81;100.00;101548.53;10582952;28;20055;-61
2021/11/20 22:15:48;;;;;;;70.07;37.10;;;;;;;7.48;100.00;101545.28;10564936;28;20039;-61
2021/11/20 22:21:10;;;;;;;57.83;34.85;;;;;;;7.88;100.00;101520.50;10582718;28;20044;-61
2021/11/20 22:26:13;;;;;;;72.32;37.75;;;;;;;7.59;100.00;101522.34;10582457;28;20047;-61
2021/11/20 22:31:15;;;;;;;76.57;39.67;;;;;;;7.70;100.00;101521.97;10581737;28;20055;-61
2021/11/20 22:36:18;;;;;;;60.35;33.97;;;;;;;7.68;100.00;101510.75;10581962;28;20089;-61
2021/11/20 22:41:20;;;;;;;61.13;33.42;;;;;;;7.73;100.00;101498.41;10581900;28;20059;-61
2021/11/20 22:46:27;;;;;;;61.35;34.80;;;;;;;7.74;100.00;101493.16;10581858;28;20082;-61
2021/11/20 22:51:29;;;;;;;53.35;32.22;;;;;;;7.74;100.00;101482.72;10593971;28;20044;-61
2021/11/20 22:56:32;;;;;;;67.05;37.97;;;;;;;7.75;100.00;101486.19;10595848;28;20051;-61
2021/11/20 23:01:34;;;;;;;68.80;36.67;;;;;;;7.76;100.00;101482.69;10595607;28;20056;-61